Napanoch, New York
Current Conditions -  °F | °C
As of 1:54 PM on Friday 24 Oct 2014 (Local Time) from KMGJ Reporting Station
Overcast Overcast  
Wind Chill: 59°   Ceiling: 3800
Heat Index: 59°   Visibility: 10mi
Dew Point: 43°   Wind: 17mph
Humidity: 55%   Direction: 330°NNW
Pressure: 29.77"   Gusts: 23mph
Location:  41.75°N, 74.37°W
Report Text: KMGJ 241754Z AUTO 33015G20KT 10SM OVC038 15/06 A2977 RMK AO2 SLP081 T01500061 10150 20100 58014 TSNO $
Loading
Personal Weather Stations






























Interactive Weather Map
Tropical Storm Tracking
New forecast layout! Learn more

10-Day Weather Forecast

Advertisements
Track Severe Weather on mobile